sensor_id;sensor_type;location;lat;lon;timestamp;pressure;altitude;pressure_sealevel;temperature;humidity
76586;BME280;65251;51.022;13.736;2023-05-07T00:00:09;99733.63;;;10.90;77.88
76586;BME280;65251;51.022;13.736;2023-05-07T00:00:41;99732.41;;;10.93;78.28
76586;BME280;65251;51.022;13.736;2023-05-07T00:01:12;99723.41;;;10.94;77.81
76586;BME280;65251;51.022;13.736;2023-05-07T00:01:43;99728.53;;;10.95;77.63
76586;BME280;65251;51.022;13.736;2023-05-07T00:02:15;99719.53;;;10.96;77.97
76586;BME280;65251;51.022;13.736;2023-05-07T00:02:46;99727.53;;;10.96;77.88
76586;BME280;65251;51.022;13.736;2023-05-07T00:03:17;99731.84;;;10.97;77.95
76586;BME280;65251;51.022;13.736;2023-05-07T00:03:47;99732.66;;;10.98;77.79
76586;BME280;65251;51.022;13.736;2023-05-07T00:04:19;99729.78;;;10.99;77.79
76586;BME280;65251;51.022;13.736;2023-05-07T00:04:51;99725.50;;;10.98;78.13
76586;BME280;65251;51.022;13.736;2023-05-07T00:05:22;99735.94;;;11.00;78.33
76586;BME280;65251;51.022;13.736;2023-05-07T00:05:54;99728.16;;;10.98;77.47
76586;BME280;65251;51.022;13.736;2023-05-07T00:06:24;99728.97;;;10.99;77.86
76586;BME280;65251;51.022;13.736;2023-05-07T00:06:57;99728.94;;;10.92;78.06
76586;BME280;65251;51.022;13.736;2023-05-07T00:07:28;99725.88;;;10.95;78.93
76586;BME280;65251;51.022;13.736;2023-05-07T00:07:59;99733.69;;;10.97;79.03
76586;BME280;65251;51.022;13.736;2023-05-07T00:08:30;99731.84;;;10.97;78.44
76586;BME280;65251;51.022;13.736;2023-05-07T00:09:01;99732.66;;;10.98;77.70
76586;BME280;65251;51.022;13.736;2023-05-07T00:09:33;99735.72;;;10.95;78.21
76586;BME280;65251;51.022;13.736;2023-05-07T00:10:05;99737.38;;;10.96;78.74
76586;BME280;65251;51.022;13.736;2023-05-07T00:10:36;99732.84;;;10.96;78.22
76586;BME280;65251;51.022;13.736;2023-05-07T00:11:10;99739.84;;;10.97;78.30
76586;BME280;65251;51.022;13.736;2023-05-07T00:11:40;99735.91;;;10.93;78.63
76586;BME280;65251;51.022;13.736;2023-05-07T00:12:11;99732.84;;;10.96;78.46
76586;BME280;65251;51.022;13.736;2023-05-07T00:12:42;99743.91;;;10.93;78.71
76586;BME280;65251;51.022;13.736;2023-05-07T00:13:15;99741.06;;;10.95;78.33
76586;BME280;65251;51.022;13.736;2023-05-07T00:13:45;99739.41;;;10.94;78.28
76586;BME280;65251;51.022;13.736;2023-05-07T00:14:16;99731.22;;;10.95;78.95
76586;BME280;65251;51.022;13.736;2023-05-07T00:14:48;99743.53;;;10.96;78.31
76586;BME280;65251;51.022;13.736;2023-05-07T00:15:18;99743.72;;;10.95;78.04
76586;BME280;65251;51.022;13.736;2023-05-07T00:15:50;99736.75;;;10.94;78.62
76586;BME280;65251;51.022;13.736;2023-05-07T00:16:21;99736.94;;;10.92;78.30
76586;BME280;65251;51.022;13.736;2023-05-07T00:16:52;99736.94;;;10.92;78.79
76586;BME280;65251;51.022;13.736;2023-05-07T00:17:23;99735.28;;;10.91;78.38
76586;BME280;65251;51.022;13.736;2023-05-07T00:17:55;99733.63;;;10.90;78.75
76586;BME280;65251;51.022;13.736;2023-05-07T00:18:26;99739.78;;;10.91;78.78
76586;BME280;65251;51.022;13.736;2023-05-07T00:18:56;99739.78;;;10.91;78.99
76586;BME280;65251;51.022;13.736;2023-05-07T00:19:27;99733.00;;;10.88;77.87
76586;BME280;65251;51.022;13.736;2023-05-07T00:19:59;99734.66;;;10.89;78.30
76586;BME280;65251;51.022;13.736;2023-05-07T00:20:30;99734.41;;;10.84;78.46
76586;BME280;65251;51.022;13.736;2023-05-07T00:21:00;99729.69;;;10.86;78.75
76586;BME280;65251;51.022;13.736;2023-05-07T00:21:32;99737.25;;;10.83;78.90
76586;BME280;65251;51.022;13.736;2023-05-07T00:22:03;99725.59;;;10.84;79.05
76586;BME280;65251;51.022;13.736;2023-05-07T00:22:34;99731.75;;;10.84;79.04
76586;BME280;65251;51.022;13.736;2023-05-07T00:23:06;99726.78;;;10.81;79.02
76586;BME280;65251;51.022;13.736;2023-05-07T00:23:36;99731.09;;;10.82;78.63
76586;BME280;65251;51.022;13.736;2023-05-07T00:24:07;99729.66;;;10.80;78.78
76586;BME280;65251;51.022;13.736;2023-05-07T00:24:39;99727.63;;;10.82;79.48
76586;BME280;65251;51.022;13.736;2023-05-07T00:25:09;99723.09;;;10.76;79.36
76586;BME280;65251;51.022;13.736;2023-05-07T00:25:40;99741.13;;;10.80;79.58
76586;BME280;65251;51.022;13.736;2023-05-07T00:26:12;99736.63;;;10.81;79.16
76586;BME280;65251;51.022;13.736;2023-05-07T00:26:44;99739.72;;;10.78;79.39
76586;BME280;65251;51.022;13.736;2023-05-07T00:27:15;99730.88;;;10.77;79.42
76586;BME280;65251;51.022;13.736;2023-05-07T00:27:46;99738.25;;;10.75;79.86
76586;BME280;65251;51.022;13.736;2023-05-07T00:28:17;99739.72;;;10.78;79.38
76586;BME280;65251;51.022;13.736;2023-05-07T00:28:48;99736.03;;;10.79;79.14
76586;BME280;65251;51.022;13.736;2023-05-07T00:29:19;99728.41;;;10.76;79.87
76586;BME280;65251;51.022;13.736;2023-05-07T00:29:50;99732.09;;;10.75;79.23
76586;BME280;65251;51.022;13.736;2023-05-07T00:30:22;99731.91;;;10.76;78.57
76586;BME280;65251;51.022;13.736;2023-05-07T00:30:53;99734.56;;;10.76;79.38
76586;BME280;65251;51.022;13.736;2023-05-07T00:31:23;99731.09;;;10.76;79.12
76586;BME280;65251;51.022;13.736;2023-05-07T00:31:55;99735.97;;;10.72;79.24
76586;BME280;65251;51.022;13.736;2023-05-07T00:32:26;99738.00;;;10.70;79.20
76586;BME280;65251;51.022;13.736;2023-05-07T00:32:57;99728.31;;;10.62;80.00
76586;BME280;65251;51.022;13.736;2023-05-07T00:33:27;99733.22;;;10.59;79.29
76586;BME280;65251;51.022;13.736;2023-05-07T00:33:59;99727.06;;;10.58;80.01
76586;BME280;65251;51.022;13.736;2023-05-07T00:34:30;99736.91;;;10.58;80.69
76586;BME280;65251;51.022;13.736;2023-05-07T00:35:00;99729.09;;;10.56;80.69
76586;BME280;65251;51.022;13.736;2023-05-07T00:35:32;99733.16;;;10.52;80.27
76586;BME280;65251;51.022;13.736;2023-05-07T00:36:03;99729.66;;;10.52;80.65
76586;BME280;65251;51.022;13.736;2023-05-07T00:36:34;99733.53;;;10.49;80.36
76586;BME280;65251;51.022;13.736;2023-05-07T00:37:06;99736.19;;;10.49;80.75
76586;BME280;65251;51.022;13.736;2023-05-07T00:37:37;99737.84;;;10.50;80.34
76586;BME280;65251;51.022;13.736;2023-05-07T00:38:08;99734.19;;;10.51;79.70
76586;BME280;65251;51.022;13.736;2023-05-07T00:38:40;99732.34;;;10.52;80.43
76586;BME280;65251;51.022;13.736;2023-05-07T00:39:11;99743.44;;;10.55;80.97
76586;BME280;65251;51.022;13.736;2023-05-07T00:39:41;99731.75;;;10.56;80.51
76586;BME280;65251;51.022;13.736;2023-05-07T00:40:12;99733.41;;;10.57;80.48
76586;BME280;65251;51.022;13.736;2023-05-07T00:40:44;99739.56;;;10.58;80.91
76586;BME280;65251;51.022;13.736;2023-05-07T00:41:17;99738.31;;;10.60;80.40
76586;BME280;65251;51.022;13.736;2023-05-07T00:41:48;99741.00;;;10.60;79.91
76586;BME280;65251;51.022;13.736;2023-05-07T00:42:19;99730.16;;;10.62;80.08
76586;BME280;65251;51.022;13.736;2023-05-07T00:42:51;99733.00;;;10.60;79.76
76586;BME280;65251;51.022;13.736;2023-05-07T00:43:23;99733.44;;;10.64;80.21
76586;BME280;65251;51.022;13.736;2023-05-07T00:43:55;99738.13;;;10.62;79.92
76586;BME280;65251;51.022;13.736;2023-05-07T00:44:26;99734.66;;;10.61;79.86
76586;BME280;65251;51.022;13.736;2023-05-07T00:44:57;99738.31;;;10.60;80.46
76586;BME280;65251;51.022;13.736;2023-05-07T00:45:29;99737.31;;;10.61;80.32
76586;BME280;65251;51.022;13.736;2023-05-07T00:46:01;99736.28;;;10.62;80.84
76586;BME280;65251;51.022;13.736;2023-05-07T00:46:32;99731.56;;;10.58;80.56
76586;BME280;65251;51.022;13.736;2023-05-07T00:47:05;99735.28;;;10.63;80.79
76586;BME280;65251;51.022;13.736;2023-05-07T00:47:37;99733.06;;;10.67;80.07
76586;BME280;65251;51.022;13.736;2023-05-07T00:48:08;99738.38;;;10.67;80.62
76586;BME280;65251;51.022;13.736;2023-05-07T00:48:39;99744.34;;;10.69;79.84
76586;BME280;65251;51.022;13.736;2023-05-07T00:49:12;99739.84;;;10.69;80.80
76586;BME280;65251;51.022;13.736;2023-05-07T00:49:44;99738.38;;;10.67;80.42
76586;BME280;65251;51.022;13.736;2023-05-07T00:50:15;99727.28;;;10.63;79.83
76586;BME280;65251;51.022;13.736;2023-05-07T00:50:46;99745.19;;;10.69;81.04
76586;BME280;65251;51.022;13.736;2023-05-07T00:51:18;99731.84;;;10.69;80.77
76586;BME280;65251;51.022;13.736;2023-05-07T00:51:49;99737.00;;;10.71;80.13
76586;BME280;65251;51.022;13.736;2023-05-07T00:52:25;99732.94;;;10.75;80.61
76586;BME280;65251;51.022;13.736;2023-05-07T00:52:58;99737.03;;;10.78;80.65
76586;BME280;65251;51.022;13.736;2023-05-07T00:53:30;99732.72;;;10.77;79.79
76586;BME280;65251;51.022;13.736;2023-05-07T00:54:02;99739.72;;;10.78;80.11
76586;BME280;65251;51.022;13.736;2023-05-07T00:54:35;99735.81;;;10.80;79.80
76586;BME280;65251;51.022;13.736;2023-05-07T00:55:07;99734.38;;;10.78;79.99
76586;BME280;65251;51.022;13.736;2023-05-07T00:55:39;99731.31;;;10.81;79.51
76586;BME280;65251;51.022;13.736;2023-05-07T00:56:11;99729.66;;;10.80;79.50
76586;BME280;65251;51.022;13.736;2023-05-07T00:56:44;99737.66;;;10.80;79.92
76586;BME280;65251;51.022;13.736;2023-05-07T00:57:15;99731.31;;;10.81;80.11
76586;BME280;65251;51.022;13.736;2023-05-07T00:57:46;99728.81;;;10.79;79.59
76586;BME280;65251;51.022;13.736;2023-05-07T00:58:19;99723.50;;;10.79;80.64
76586;BME280;65251;51.022;13.736;2023-05-07T00:58:50;99728.81;;;10.79;79.83
76586;BME280;65251;51.022;13.736;2023-05-07T00:59:21;99731.50;;;10.79;80.08
76586;BME280;65251;51.022;13.736;2023-05-07T00:59:53;99733.38;;;10.79;80.01
76586;BME280;65251;51.022;13.736;2023-05-07T01:00:24;99731.72;;;10.78;80.38
76586;BME280;65251;51.022;13.736;2023-05-07T01:00:55;99715.03;;;10.69;79.54
76586;BME280;65251;51.022;13.736;2023-05-07T01:01:27;99733.75;;;10.76;80.32
76586;BME280;65251;51.022;13.736;2023-05-07T01:01:58;99722.66;;;10.72;79.70
76586;BME280;65251;51.022;13.736;2023-05-07T01:02:29;99722.25;;;10.75;80.49
76586;BME280;65251;51.022;13.736;2023-05-07T01:03:00;99727.00;;;10.80;79.26
76586;BME280;65251;51.022;13.736;2023-05-07T01:03:32;99725.75;;;10.76;80.03
76586;BME280;65251;51.022;13.736;2023-05-07T01:04:02;99728.03;;;10.79;79.73
76586;BME280;65251;51.022;13.736;2023-05-07T01:04:33;99724.31;;;10.80;79.38
76586;BME280;65251;51.022;13.736;2023-05-07T01:05:09;99723.50;;;10.79;79.39
76586;BME280;65251;51.022;13.736;2023-05-07T01:05:44;99725.38;;;10.79;79.77
76586;BME280;65251;51.022;13.736;2023-05-07T01:06:18;99729.88;;;10.78;79.40
76586;BME280;65251;51.022;13.736;2023-05-07T01:06:52;99727.22;;;10.78;80.26
76586;BME280;65251;51.022;13.736;2023-05-07T01:07:25;99731.31;;;10.81;79.92
76586;BME280;65251;51.022;13.736;2023-05-07T01:07:57;99728.03;;;10.79;79.40
76586;BME280;65251;51.022;13.736;2023-05-07T01:08:31;99736.63;;;10.81;79.91
76586;BME280;65251;51.022;13.736;2023-05-07T01:09:03;99732.53;;;10.78;79.29
76586;BME280;65251;51.022;13.736;2023-05-07T01:09:36;99737.03;;;10.78;79.70
76586;BME280;65251;51.022;13.736;2023-05-07T01:10:09;99732.94;;;10.82;79.62
76586;BME280;65251;51.022;13.736;2023-05-07T01:10:41;99736.03;;;10.79;78.92
76586;BME280;65251;51.022;13.736;2023-05-07T01:11:14;99736.44;;;10.82;79.57
76586;BME280;65251;51.022;13.736;2023-05-07T01:11:49;99732.75;;;10.83;79.47
76586;BME280;65251;51.022;13.736;2023-05-07T01:12:21;99734.41;;;10.84;78.54
76586;BME280;65251;51.022;13.736;2023-05-07T01:12:54;99735.22;;;10.85;79.52
76586;BME280;65251;51.022;13.736;2023-05-07T01:13:27;99727.22;;;10.85;78.94
76586;BME280;65251;51.022;13.736;2023-05-07T01:13:59;99738.53;;;10.87;79.00
76586;BME280;65251;51.022;13.736;2023-05-07T01:14:30;99736.06;;;10.85;78.63
76586;BME280;65251;51.022;13.736;2023-05-07T01:15:06;99735.84;;;10.87;79.35
76586;BME280;65251;51.022;13.736;2023-05-07T01:15:39;99735.22;;;10.85;79.70
76586;BME280;65251;51.022;13.736;2023-05-07T01:16:11;99734.22;;;10.86;79.07
76586;BME280;65251;51.022;13.736;2023-05-07T01:16:42;99724.94;;;10.82;79.05
76586;BME280;65251;51.022;13.736;2023-05-07T01:17:14;99738.53;;;10.87;79.31
76586;BME280;65251;51.022;13.736;2023-05-07T01:17:45;99738.53;;;10.87;78.28
76586;BME280;65251;51.022;13.736;2023-05-07T01:18:16;99730.91;;;10.84;78.63
76586;BME280;65251;51.022;13.736;2023-05-07T01:18:48;99737.50;;;10.88;78.68
76586;BME280;65251;51.022;13.736;2023-05-07T01:19:19;99737.06;;;10.84;79.28
76586;BME280;65251;51.022;13.736;2023-05-07T01:19:50;99734.41;;;10.84;78.45
76586;BME280;65251;51.022;13.736;2023-05-07T01:20:23;99735.63;;;10.82;79.13
76586;BME280;65251;51.022;13.736;2023-05-07T01:20:58;99731.50;;;10.79;78.89
76586;BME280;65251;51.022;13.736;2023-05-07T01:21:33;99734.97;;;10.80;78.46
76586;BME280;65251;51.022;13.736;2023-05-07T01:22:09;99728.22;;;10.77;78.66
76586;BME280;65251;51.022;13.736;2023-05-07T01:22:43;99736.03;;;10.79;78.39
76586;BME280;65251;51.022;13.736;2023-05-07T01:23:15;99740.91;;;10.75;78.56
76586;BME280;65251;51.022;13.736;2023-05-07T01:23:47;99736.34;;;10.69;77.86
76586;BME280;65251;51.022;13.736;2023-05-07T01:24:18;99747.97;;;10.61;77.96
76586;BME280;65251;51.022;13.736;2023-05-07T01:24:49;99735.44;;;10.55;78.86
76586;BME280;65251;51.022;13.736;2023-05-07T01:25:20;99737.28;;;10.55;79.17
76586;BME280;65251;51.022;13.736;2023-05-07T01:25:53;99747.69;;;10.50;78.09
76586;BME280;65251;51.022;13.736;2023-05-07T01:26:24;99745.59;;;10.45;79.00
76586;BME280;65251;51.022;13.736;2023-05-07T01:26:54;99749.84;;;10.40;78.87
76586;BME280;65251;51.022;13.736;2023-05-07T01:27:25;99743.28;;;10.35;78.67
76586;BME280;65251;51.022;13.736;2023-05-07T01:27:57;99745.69;;;10.30;78.86
76586;BME280;65251;51.022;13.736;2023-05-07T01:28:29;99744.22;;;10.28;79.85
76586;BME280;65251;51.022;13.736;2023-05-07T01:29:00;99745.22;;;10.27;79.62
76586;BME280;65251;51.022;13.736;2023-05-07T01:29:32;99742.94;;;10.24;79.49
76586;BME280;65251;51.022;13.736;2023-05-07T01:30:03;99741.09;;;10.24;78.87
76586;BME280;65251;51.022;13.736;2023-05-07T01:30:36;99744.97;;;10.22;79.73
76586;BME280;65251;51.022;13.736;2023-05-07T01:31:09;99747.63;;;10.22;79.32
76586;BME280;65251;51.022;13.736;2023-05-07T01:31:42;99739.84;;;10.20;79.13
76586;BME280;65251;51.022;13.736;2023-05-07T01:32:15;99736.53;;;10.18;79.38
76586;BME280;65251;51.022;13.736;2023-05-07T01:32:56;99742.88;;;10.17;80.08
76586;BME280;65251;51.022;13.736;2023-05-07T01:33:30;99743.69;;;10.18;80.59
76586;BME280;65251;51.022;13.736;2023-05-07T01:34:04;99749.47;;;10.21;80.60
76586;BME280;65251;51.022;13.736;2023-05-07T01:34:37;99746.44;;;10.24;79.48
76586;BME280;65251;51.022;13.736;2023-05-07T01:35:11;99740.28;;;10.24;79.55
76586;BME280;65251;51.022;13.736;2023-05-07T01:35:48;99741.09;;;10.24;80.00
76586;BME280;65251;51.022;13.736;2023-05-07T01:36:23;99744.59;;;10.25;80.22
76586;BME280;65251;51.022;13.736;2023-05-07T01:36:58;99745.41;;;10.25;79.56
76586;BME280;65251;51.022;13.736;2023-05-07T01:37:29;99739.06;;;10.26;79.41
76586;BME280;65251;51.022;13.736;2023-05-07T01:38:03;99750.75;;;10.25;79.92
76586;BME280;65251;51.022;13.736;2023-05-07T01:38:38;99745.22;;;10.27;79.71
76586;BME280;65251;51.022;13.736;2023-05-07T01:39:12;99738.44;;;10.24;79.82
76586;BME280;65251;51.022;13.736;2023-05-07T01:39:44;99740.72;;;10.27;79.56
76586;BME280;65251;51.022;13.736;2023-05-07T01:40:16;99741.94;;;10.25;79.77
76586;BME280;65251;51.022;13.736;2023-05-07T01:40:48;99743.19;;;10.29;79.32
76586;BME280;65251;51.022;13.736;2023-05-07T01:41:19;99742.56;;;10.27;78.79
76586;BME280;65251;51.022;13.736;2023-05-07T01:41:50;99745.22;;;10.27;78.82
76586;BME280;65251;51.022;13.736;2023-05-07T01:42:23;99747.06;;;10.26;78.92
76586;BME280;65251;51.022;13.736;2023-05-07T01:42:54;99743.75;;;10.24;78.50
76586;BME280;65251;51.022;13.736;2023-05-07T01:43:25;99748.28;;;10.24;79.33
76586;BME280;65251;51.022;13.736;2023-05-07T01:43:58;99747.06;;;10.26;78.93
76586;BME280;65251;51.022;13.736;2023-05-07T01:44:29;99749.72;;;10.26;78.19
76586;BME280;65251;51.022;13.736;2023-05-07T01:45:00;99741.94;;;10.25;77.91
76586;BME280;65251;51.022;13.736;2023-05-07T01:45:34;99743.75;;;10.24;78.35
76586;BME280;65251;51.022;13.736;2023-05-07T01:46:06;99747.88;;;10.27;78.24
76586;BME280;65251;51.022;13.736;2023-05-07T01:46:38;99742.56;;;10.27;77.99
76586;BME280;65251;51.022;13.736;2023-05-07T01:47:10;99751.00;;;10.30;78.32
76586;BME280;65251;51.022;13.736;2023-05-07T01:47:42;99751.00;;;10.30;77.88
76586;BME280;65251;51.022;13.736;2023-05-07T01:48:14;99748.34;;;10.30;77.11
76586;BME280;65251;51.022;13.736;2023-05-07T01:48:46;99746.31;;;10.32;77.24
76586;BME280;65251;51.022;13.736;2023-05-07T01:49:18;99751.81;;;10.31;78.41
76586;BME280;65251;51.022;13.736;2023-05-07T01:49:50;99750.81;;;10.32;77.93
76586;BME280;65251;51.022;13.736;2023-05-07T01:50:21;99749.81;;;10.33;77.44
76586;BME280;65251;51.022;13.736;2023-05-07T01:50:52;99756.22;;;10.39;77.78
76586;BME280;65251;51.022;13.736;2023-05-07T01:51:24;99748.00;;;10.40;77.81
76586;BME280;65251;51.022;13.736;2023-05-07T01:51:55;99749.47;;;10.43;78.27
76586;BME280;65251;51.022;13.736;2023-05-07T01:52:27;99750.09;;;10.45;78.23
76586;BME280;65251;51.022;13.736;2023-05-07T01:52:59;99753.59;;;10.45;78.05
76586;BME280;65251;51.022;13.736;2023-05-07T01:53:36;99747.25;;;10.46;76.96
76586;BME280;65251;51.022;13.736;2023-05-07T01:54:07;99757.72;;;10.48;77.24
76586;BME280;65251;51.022;13.736;2023-05-07T01:54:39;99748.69;;;10.49;77.11
76586;BME280;65251;51.022;13.736;2023-05-07T01:55:10;99747.69;;;10.50;77.11
76586;BME280;65251;51.022;13.736;2023-05-07T01:55:41;99744.00;;;10.51;77.16
76586;BME280;65251;51.022;13.736;2023-05-07T01:56:13;99740.72;;;10.49;78.30
76586;BME280;65251;51.022;13.736;2023-05-07T01:56:43;99744.84;;;10.51;77.07
76586;BME280;65251;51.022;13.736;2023-05-07T01:57:15;99750.97;;;10.52;77.28
76586;BME280;65251;51.022;13.736;2023-05-07T01:57:45;99744.63;;;10.53;77.26
76586;BME280;65251;51.022;13.736;2023-05-07T01:58:17;99746.09;;;10.55;76.69
76586;BME280;65251;51.022;13.736;2023-05-07T01:58:49;99753.47;;;10.53;77.46
76586;BME280;65251;51.022;13.736;2023-05-07T01:59:21;99739.31;;;10.53;77.22
76586;BME280;65251;51.022;13.736;2023-05-07T01:59:53;99748.31;;;10.52;77.71
76586;BME280;65251;51.022;13.736;2023-05-07T02:00:24;99751.16;;;10.50;77.72
76586;BME280;65251;51.022;13.736;2023-05-07T02:00:54;99752.00;;;10.51;76.80
76586;BME280;65251;51.022;13.736;2023-05-07T02:01:26;99747.69;;;10.50;77.81
76586;BME280;65251;51.022;13.736;2023-05-07T02:01:57;99740.31;;;10.52;77.62
76586;BME280;65251;51.022;13.736;2023-05-07T02:02:28;99749.78;;;10.54;77.10
76586;BME280;65251;51.022;13.736;2023-05-07T02:02:59;99752.25;;;10.56;76.90
76586;BME280;65251;51.022;13.736;2023-05-07T02:03:30;99749.59;;;10.56;77.10
76586;BME280;65251;51.022;13.736;2023-05-07T02:04:01;99743.88;;;10.59;76.80
76586;BME280;65251;51.022;13.736;2023-05-07T02:04:33;99751.47;;;10.62;77.12
76586;BME280;65251;51.022;13.736;2023-05-07T02:05:04;99744.28;;;10.62;77.02
76586;BME280;65251;51.022;13.736;2023-05-07T02:05:35;99751.91;;;10.65;76.67
76586;BME280;65251;51.022;13.736;2023-05-07T02:06:06;99748.22;;;10.66;76.10
76586;BME280;65251;51.022;13.736;2023-05-07T02:06:38;99744.53;;;10.67;76.34
76586;BME280;65251;51.022;13.736;2023-05-07T02:07:08;99743.72;;;10.67;76.56
76586;BME280;65251;51.022;13.736;2023-05-07T02:07:40;99748.84;;;10.68;75.97
76586;BME280;65251;51.022;13.736;2023-05-07T02:08:11;99743.53;;;10.68;76.39
76586;BME280;65251;51.022;13.736;2023-05-07T02:08:43;99741.69;;;10.69;76.84
76586;BME280;65251;51.022;13.736;2023-05-07T02:09:15;99740.22;;;10.66;75.73
76586;BME280;65251;51.022;13.736;2023-05-07T02:09:46;99746.56;;;10.65;76.61
76586;BME280;65251;51.022;13.736;2023-05-07T02:10:17;99742.84;;;10.60;75.86
76586;BME280;65251;51.022;13.736;2023-05-07T02:10:47;99745.91;;;10.57;76.53
76586;BME280;65251;51.022;13.736;2023-05-07T02:11:20;99744.84;;;10.51;75.95
76586;BME280;65251;51.022;13.736;2023-05-07T02:11:51;99749.53;;;10.49;77.28
76586;BME280;65251;51.022;13.736;2023-05-07T02:12:22;99739.63;;;10.43;77.16
76586;BME280;65251;51.022;13.736;2023-05-07T02:12:54;99742.28;;;10.43;77.42
76586;BME280;65251;51.022;13.736;2023-05-07T02:13:28;99743.50;;;10.41;76.72
76586;BME280;65251;51.022;13.736;2023-05-07T02:13:59;99740.84;;;10.41;77.70
76586;BME280;65251;51.022;13.736;2023-05-07T02:14:31;99748.63;;;10.42;77.52
76586;BME280;65251;51.022;13.736;2023-05-07T02:15:02;99748.81;;;10.41;77.55
76586;BME280;65251;51.022;13.736;2023-05-07T02:15:32;99745.34;;;10.40;77.15
76586;BME280;65251;51.022;13.736;2023-05-07T02:16:04;99750.47;;;10.42;77.59
76586;BME280;65251;51.022;13.736;2023-05-07T02:16:36;99748.81;;;10.41;78.12
76586;BME280;65251;51.022;13.736;2023-05-07T02:17:07;99749.03;;;10.39;77.39
76586;BME280;65251;51.022;13.736;2023-05-07T02:17:58;99742.47;;;10.42;77.43
76586;BME280;65251;51.022;13.736;2023-05-07T02:18:29;99746.41;;;10.46;77.95
76586;BME280;65251;51.022;13.736;2023-05-07T02:19:02;99753.41;;;10.47;76.63
76586;BME280;65251;51.022;13.736;2023-05-07T02:19:33;99747.88;;;10.48;77.74
76586;BME280;65251;51.022;13.736;2023-05-07T02:20:04;99752.63;;;10.53;76.56
76586;BME280;65251;51.022;13.736;2023-05-07T02:20:37;99748.13;;;10.53;76.31
76586;BME280;65251;51.022;13.736;2023-05-07T02:21:08;99751.81;;;10.52;76.56
76586;BME280;65251;51.022;13.736;2023-05-07T02:21:39;99751.44;;;10.55;77.57
76586;BME280;65251;51.022;13.736;2023-05-07T02:22:10;99753.91;;;10.57;76.96
76586;BME280;65251;51.022;13.736;2023-05-07T02:22:41;99751.25;;;10.57;76.17
76586;BME280;65251;51.022;13.736;2023-05-07T02:23:12;99754.53;;;10.59;77.36
76586;BME280;65251;51.022;13.736;2023-05-07T02:23:44;99753.31;;;10.61;77.14
76586;BME280;65251;51.022;13.736;2023-05-07T02:24:16;99748.16;;;10.60;76.64
76586;BME280;65251;51.022;13.736;2023-05-07T02:24:46;99760.88;;;10.58;76.29
76586;BME280;65251;51.022;13.736;2023-05-07T02:25:17;99760.25;;;10.56;76.52
76586;BME280;65251;51.022;13.736;2023-05-07T02:25:49;99756.31;;;10.52;76.86
76586;BME280;65251;51.022;13.736;2023-05-07T02:26:19;99756.31;;;10.52;75.91
76586;BME280;65251;51.022;13.736;2023-05-07T02:26:51;99762.84;;;10.49;76.96
76586;BME280;65251;51.022;13.736;2023-05-07T02:27:22;99761.19;;;10.48;76.30
76586;BME280;65251;51.022;13.736;2023-05-07T02:27:53;99760.75;;;10.45;76.16
76586;BME280;65251;51.022;13.736;2023-05-07T02:28:25;99762.22;;;10.47;77.28
76586;BME280;65251;51.022;13.736;2023-05-07T02:28:55;99753.19;;;10.48;76.85
76586;BME280;65251;51.022;13.736;2023-05-07T02:29:26;99760.81;;;10.51;76.04
76586;BME280;65251;51.022;13.736;2023-05-07T02:29:58;99760.00;;;10.51;76.42
76586;BME280;65251;51.022;13.736;2023-05-07T02:30:29;99755.88;;;10.48;76.60
76586;BME280;65251;51.022;13.736;2023-05-07T02:30:59;99755.59;;;10.43;76.99
76586;BME280;65251;51.022;13.736;2023-05-07T02:31:31;99755.22;;;10.46;76.76
76586;BME280;65251;51.022;13.736;2023-05-07T02:32:04;99757.06;;;10.46;76.11
76586;BME280;65251;51.022;13.736;2023-05-07T02:32:35;99758.09;;;10.45;77.12
76586;BME280;65251;51.022;13.736;2023-05-07T02:33:05;99754.41;;;10.46;77.46
76586;BME280;65251;51.022;13.736;2023-05-07T02:33:38;99757.72;;;10.48;77.32
76586;BME280;65251;51.022;13.736;2023-05-07T02:34:10;99753.41;;;10.47;76.43
76586;BME280;65251;51.022;13.736;2023-05-07T02:34:41;99762.03;;;10.49;76.40
76586;BME280;65251;51.022;13.736;2023-05-07T02:35:11;99756.06;;;10.47;76.13
76586;BME280;65251;51.022;13.736;2023-05-07T02:35:42;99763.03;;;10.48;76.77
76586;BME280;65251;51.022;13.736;2023-05-07T02:36:14;99760.56;;;10.46;76.55
76586;BME280;65251;51.022;13.736;2023-05-07T02:36:45;99760.13;;;10.43;76.54
76586;BME280;65251;51.022;13.736;2023-05-07T02:37:16;99766.47;;;10.42;76.04
76586;BME280;65251;51.022;13.736;2023-05-07T02:37:47;99760.31;;;10.41;76.75
76586;BME280;65251;51.022;13.736;2023-05-07T02:38:18;99761.53;;;10.39;77.27
76586;BME280;65251;51.022;13.736;2023-05-07T02:38:50;99764.19;;;10.39;76.60
76586;BME280;65251;51.022;13.736;2023-05-07T02:39:22;99760.50;;;10.40;77.09
76586;BME280;65251;51.022;13.736;2023-05-07T02:39:53;99763.97;;;10.40;77.01
76586;BME280;65251;51.022;13.736;2023-05-07T02:40:23;99758.66;;;10.40;76.86
76586;BME280;65251;51.022;13.736;2023-05-07T02:40:54;99763.97;;;10.40;77.16
76586;BME280;65251;51.022;13.736;2023-05-07T02:41:26;99760.31;;;10.41;77.57
76586;BME280;65251;51.022;13.736;2023-05-07T02:41:58;99764.63;;;10.42;77.00
76586;BME280;65251;51.022;13.736;2023-05-07T02:42:29;99755.81;;;10.42;76.37
76586;BME280;65251;51.022;13.736;2023-05-07T02:43:00;99758.47;;;10.42;76.58
76586;BME280;65251;51.022;13.736;2023-05-07T02:43:31;99762.97;;;10.41;76.93
76586;BME280;65251;51.022;13.736;2023-05-07T02:44:02;99759.06;;;10.37;77.05
76586;BME280;65251;51.022;13.736;2023-05-07T02:44:34;99758.88;;;10.39;77.39
76586;BME280;65251;51.022;13.736;2023-05-07T02:45:07;99760.31;;;10.41;76.44
76586;BME280;65251;51.022;13.736;2023-05-07T02:45:37;99753.72;;;10.37;77.38
76586;BME280;65251;51.022;13.736;2023-05-07T02:46:09;99756.22;;;10.39;77.22